sensor_id;sensor_type;location;lat;lon;timestamp;P1;durP1;ratioP1;P2;durP2;ratioP2
76729;SDS011;65653;53.106;18.046;2023-07-20T00:01:29;10.00;;;8.00;;
76729;SDS011;65653;53.106;18.046;2023-07-20T00:03:56;11.10;;;7.40;;
76729;SDS011;65653;53.106;18.046;2023-07-20T00:06:23;9.00;;;6.90;;
76729;SDS011;65653;53.106;18.046;2023-07-20T00:08:51;8.00;;;6.00;;
76729;SDS011;65653;53.106;18.046;2023-07-20T00:11:18;7.90;;;6.30;;
76729;SDS011;65653;53.106;18.046;2023-07-20T00:13:44;7.40;;;6.00;;
76729;SDS011;65653;53.106;18.046;2023-07-20T00:16:11;7.70;;;6.40;;
76729;SDS011;65653;53.106;18.046;2023-07-20T00:18:37;7.60;;;5.70;;
76729;SDS011;65653;53.106;18.046;2023-07-20T00:21:04;6.80;;;6.00;;
76729;SDS011;65653;53.106;18.046;2023-07-20T00:23:31;7.60;;;5.60;;
76729;SDS011;65653;53.106;18.046;2023-07-20T00:25:57;9.60;;;6.40;;
76729;SDS011;65653;53.106;18.046;2023-07-20T00:28:24;8.00;;;6.30;;
76729;SDS011;65653;53.106;18.046;2023-07-20T00:30:50;10.80;;;6.30;;
76729;SDS011;65653;53.106;18.046;2023-07-20T00:33:17;10.70;;;6.60;;
76729;SDS011;65653;53.106;18.046;2023-07-20T00:35:44;10.40;;;7.40;;
76729;SDS011;65653;53.106;18.046;2023-07-20T00:38:11;10.90;;;6.10;;
76729;SDS011;65653;53.106;18.046;2023-07-20T00:40:38;7.80;;;6.30;;
76729;SDS011;65653;53.106;18.046;2023-07-20T00:43:05;9.20;;;6.80;;
76729;SDS011;65653;53.106;18.046;2023-07-20T00:45:33;10.10;;;7.80;;
76729;SDS011;65653;53.106;18.046;2023-07-20T00:48:01;10.60;;;8.40;;
76729;SDS011;65653;53.106;18.046;2023-07-20T00:50:28;9.50;;;7.50;;
76729;SDS011;65653;53.106;18.046;2023-07-20T00:52:55;12.00;;;8.80;;
76729;SDS011;65653;53.106;18.046;2023-07-20T00:55:23;15.60;;;11.50;;
76729;SDS011;65653;53.106;18.046;2023-07-20T00:57:51;13.80;;;10.30;;
76729;SDS011;65653;53.106;18.046;2023-07-20T01:00:17;13.50;;;10.20;;
76729;SDS011;65653;53.106;18.046;2023-07-20T01:02:45;12.40;;;10.00;;
76729;SDS011;65653;53.106;18.046;2023-07-20T01:05:13;11.50;;;9.10;;
76729;SDS011;65653;53.106;18.046;2023-07-20T01:07:44;51.80;;;35.90;;
76729;SDS011;65653;53.106;18.046;2023-07-20T01:10:17;26.10;;;19.20;;
76729;SDS011;65653;53.106;18.046;2023-07-20T01:12:52;27.90;;;19.30;;
76729;SDS011;65653;53.106;18.046;2023-07-20T01:15:19;11.10;;;8.60;;
76729;SDS011;65653;53.106;18.046;2023-07-20T01:17:45;12.20;;;9.00;;
76729;SDS011;65653;53.106;18.046;2023-07-20T01:20:13;9.30;;;7.30;;
76729;SDS011;65653;53.106;18.046;2023-07-20T01:31:54;9.50;;;7.40;;
76729;SDS011;65653;53.106;18.046;2023-07-20T01:34:23;8.30;;;7.00;;
76729;SDS011;65653;53.106;18.046;2023-07-20T01:36:52;8.10;;;6.50;;
76729;SDS011;65653;53.106;18.046;2023-07-20T01:39:20;9.30;;;6.30;;
76729;SDS011;65653;53.106;18.046;2023-07-20T01:41:48;9.40;;;6.60;;
76729;SDS011;65653;53.106;18.046;2023-07-20T01:44:14;7.20;;;6.30;;
76729;SDS011;65653;53.106;18.046;2023-07-20T01:46:41;10.40;;;7.20;;
76729;SDS011;65653;53.106;18.046;2023-07-20T01:49:08;9.50;;;6.10;;
76729;SDS011;65653;53.106;18.046;2023-07-20T01:51:34;12.20;;;6.50;;
76729;SDS011;65653;53.106;18.046;2023-07-20T01:54:01;6.80;;;5.40;;
76729;SDS011;65653;53.106;18.046;2023-07-20T01:56:28;7.10;;;5.60;;
76729;SDS011;65653;53.106;18.046;2023-07-20T01:58:54;6.80;;;5.50;;
76729;SDS011;65653;53.106;18.046;2023-07-20T02:01:21;9.40;;;5.90;;
76729;SDS011;65653;53.106;18.046;2023-07-20T02:03:47;9.40;;;6.10;;
76729;SDS011;65653;53.106;18.046;2023-07-20T02:06:14;6.90;;;5.80;;
76729;SDS011;65653;53.106;18.046;2023-07-20T02:08:41;6.60;;;4.80;;
76729;SDS011;65653;53.106;18.046;2023-07-20T02:11:07;7.00;;;5.30;;
76729;SDS011;65653;53.106;18.046;2023-07-20T02:13:36;7.60;;;4.80;;
76729;SDS011;65653;53.106;18.046;2023-07-20T02:16:02;6.20;;;4.70;;
76729;SDS011;65653;53.106;18.046;2023-07-20T02:18:29;5.40;;;4.50;;
76729;SDS011;65653;53.106;18.046;2023-07-20T02:20:55;5.90;;;4.90;;
76729;SDS011;65653;53.106;18.046;2023-07-20T02:23:22;7.90;;;4.60;;
76729;SDS011;65653;53.106;18.046;2023-07-20T02:25:48;8.70;;;5.10;;
76729;SDS011;65653;53.106;18.046;2023-07-20T02:28:15;6.10;;;4.40;;
76729;SDS011;65653;53.106;18.046;2023-07-20T02:30:42;5.50;;;4.50;;
76729;SDS011;65653;53.106;18.046;2023-07-20T02:33:09;8.20;;;4.60;;
76729;SDS011;65653;53.106;18.046;2023-07-20T02:35:35;5.80;;;4.20;;
76729;SDS011;65653;53.106;18.046;2023-07-20T02:38:02;7.00;;;4.90;;
76729;SDS011;65653;53.106;18.046;2023-07-20T02:40:29;5.00;;;3.60;;
76729;SDS011;65653;53.106;18.046;2023-07-20T02:42:56;3.80;;;3.20;;
76729;SDS011;65653;53.106;18.046;2023-07-20T02:45:22;5.40;;;3.10;;
76729;SDS011;65653;53.106;18.046;2023-07-20T02:47:49;3.30;;;2.90;;
76729;SDS011;65653;53.106;18.046;2023-07-20T02:50:16;3.80;;;3.20;;
76729;SDS011;65653;53.106;18.046;2023-07-20T02:52:42;5.10;;;3.30;;
76729;SDS011;65653;53.106;18.046;2023-07-20T02:55:09;7.50;;;4.30;;
76729;SDS011;65653;53.106;18.046;2023-07-20T02:57:35;2.60;;;2.40;;
76729;SDS011;65653;53.106;18.046;2023-07-20T03:00:02;5.30;;;3.00;;
76729;SDS011;65653;53.106;18.046;2023-07-20T03:02:31;4.80;;;3.30;;
76729;SDS011;65653;53.106;18.046;2023-07-20T03:04:58;4.10;;;3.00;;
76729;SDS011;65653;53.106;18.046;2023-07-20T03:07:27;3.50;;;3.10;;
76729;SDS011;65653;53.106;18.046;2023-07-20T03:09:54;3.30;;;2.70;;
76729;SDS011;65653;53.106;18.046;2023-07-20T03:12:21;7.90;;;3.70;;
76729;SDS011;65653;53.106;18.046;2023-07-20T03:14:48;5.00;;;3.60;;
76729;SDS011;65653;53.106;18.046;2023-07-20T03:17:15;6.80;;;3.90;;
76729;SDS011;65653;53.106;18.046;2023-07-20T03:19:41;6.10;;;4.50;;
76729;SDS011;65653;53.106;18.046;2023-07-20T03:22:08;7.90;;;4.90;;
76729;SDS011;65653;53.106;18.046;2023-07-20T03:24:35;6.00;;;4.50;;
76729;SDS011;65653;53.106;18.046;2023-07-20T03:27:01;5.50;;;4.00;;
76729;SDS011;65653;53.106;18.046;2023-07-20T03:29:28;8.30;;;4.00;;
76729;SDS011;65653;53.106;18.046;2023-07-20T03:31:54;5.70;;;3.80;;
76729;SDS011;65653;53.106;18.046;2023-07-20T03:34:21;6.20;;;4.30;;
76729;SDS011;65653;53.106;18.046;2023-07-20T03:36:48;7.00;;;4.30;;
76729;SDS011;65653;53.106;18.046;2023-07-20T03:39:14;7.60;;;3.70;;
76729;SDS011;65653;53.106;18.046;2023-07-20T03:41:41;5.90;;;4.10;;
76729;SDS011;65653;53.106;18.046;2023-07-20T03:44:08;5.90;;;3.40;;
76729;SDS011;65653;53.106;18.046;2023-07-20T03:46:35;4.50;;;3.40;;
76729;SDS011;65653;53.106;18.046;2023-07-20T03:49:01;4.70;;;3.50;;
76729;SDS011;65653;53.106;18.046;2023-07-20T03:51:28;6.90;;;3.10;;
76729;SDS011;65653;53.106;18.046;2023-07-20T03:53:55;3.30;;;3.00;;
76729;SDS011;65653;53.106;18.046;2023-07-20T03:56:22;6.70;;;3.60;;
76729;SDS011;65653;53.106;18.046;2023-07-20T03:58:49;3.60;;;3.20;;
76729;SDS011;65653;53.106;18.046;2023-07-20T04:01:16;10.30;;;3.40;;
76729;SDS011;65653;53.106;18.046;2023-07-20T04:03:45;4.70;;;3.00;;
76729;SDS011;65653;53.106;18.046;2023-07-20T04:06:11;3.40;;;3.10;;
76729;SDS011;65653;53.106;18.046;2023-07-20T04:08:40;5.10;;;3.20;;
76729;SDS011;65653;53.106;18.046;2023-07-20T04:11:07;5.90;;;3.30;;
76729;SDS011;65653;53.106;18.046;2023-07-20T04:13:33;5.70;;;3.40;;
76729;SDS011;65653;53.106;18.046;2023-07-20T04:16:00;7.80;;;3.10;;
76729;SDS011;65653;53.106;18.046;2023-07-20T04:18:28;4.70;;;3.30;;
76729;SDS011;65653;53.106;18.046;2023-07-20T04:20:55;4.20;;;3.00;;
76729;SDS011;65653;53.106;18.046;2023-07-20T04:23:22;3.20;;;2.90;;
76729;SDS011;65653;53.106;18.046;2023-07-20T04:25:49;5.90;;;2.80;;
76729;SDS011;65653;53.106;18.046;2023-07-20T04:28:15;4.20;;;3.30;;
76729;SDS011;65653;53.106;18.046;2023-07-20T04:30:42;4.50;;;2.80;;
76729;SDS011;65653;53.106;18.046;2023-07-20T04:33:08;4.00;;;2.40;;
76729;SDS011;65653;53.106;18.046;2023-07-20T04:35:45;3.00;;;2.30;;
76729;SDS011;65653;53.106;18.046;2023-07-20T04:38:19;3.80;;;2.10;;
76729;SDS011;65653;53.106;18.046;2023-07-20T04:40:48;2.60;;;2.10;;
76729;SDS011;65653;53.106;18.046;2023-07-20T04:43:15;3.30;;;2.20;;
76729;SDS011;65653;53.106;18.046;2023-07-20T04:45:43;4.50;;;1.70;;
76729;SDS011;65653;53.106;18.046;2023-07-20T04:48:10;3.70;;;1.50;;
76729;SDS011;65653;53.106;18.046;2023-07-20T04:50:38;1.80;;;1.50;;
76729;SDS011;65653;53.106;18.046;2023-07-20T04:53:07;3.00;;;1.50;;
76729;SDS011;65653;53.106;18.046;2023-07-20T04:55:37;4.30;;;2.50;;
76729;SDS011;65653;53.106;18.046;2023-07-20T04:58:04;1.90;;;1.50;;
76729;SDS011;65653;53.106;18.046;2023-07-20T05:00:32;4.70;;;1.70;;
76729;SDS011;65653;53.106;18.046;2023-07-20T05:03:00;3.90;;;1.80;;
76729;SDS011;65653;53.106;18.046;2023-07-20T05:05:26;4.30;;;1.90;;
76729;SDS011;65653;53.106;18.046;2023-07-20T05:07:53;1.90;;;1.30;;
76729;SDS011;65653;53.106;18.046;2023-07-20T05:10:20;3.20;;;1.70;;
76729;SDS011;65653;53.106;18.046;2023-07-20T05:12:47;1.90;;;1.30;;
76729;SDS011;65653;53.106;18.046;2023-07-20T05:15:13;2.60;;;1.50;;
76729;SDS011;65653;53.106;18.046;2023-07-20T05:17:41;2.20;;;1.50;;
76729;SDS011;65653;53.106;18.046;2023-07-20T05:20:07;4.60;;;1.80;;
76729;SDS011;65653;53.106;18.046;2023-07-20T05:22:38;4.00;;;1.60;;
76729;SDS011;65653;53.106;18.046;2023-07-20T05:25:09;5.80;;;1.10;;
76729;SDS011;65653;53.106;18.046;2023-07-20T05:27:37;4.00;;;1.90;;
76729;SDS011;65653;53.106;18.046;2023-07-20T05:30:04;4.80;;;2.20;;
76729;SDS011;65653;53.106;18.046;2023-07-20T05:32:31;4.70;;;1.90;;
76729;SDS011;65653;53.106;18.046;2023-07-20T05:34:58;1.70;;;1.50;;
76729;SDS011;65653;53.106;18.046;2023-07-20T05:37:24;2.70;;;1.80;;
76729;SDS011;65653;53.106;18.046;2023-07-20T05:39:51;3.90;;;2.10;;
76729;SDS011;65653;53.106;18.046;2023-07-20T05:42:17;6.10;;;3.80;;
76729;SDS011;65653;53.106;18.046;2023-07-20T05:44:45;6.10;;;4.30;;
76729;SDS011;65653;53.106;18.046;2023-07-20T05:47:13;4.20;;;2.20;;
76729;SDS011;65653;53.106;18.046;2023-07-20T05:49:41;5.90;;;2.70;;
76729;SDS011;65653;53.106;18.046;2023-07-20T05:52:07;4.70;;;2.50;;
76729;SDS011;65653;53.106;18.046;2023-07-20T05:54:34;5.00;;;2.90;;
76729;SDS011;65653;53.106;18.046;2023-07-20T05:57:00;5.60;;;3.90;;
76729;SDS011;65653;53.106;18.046;2023-07-20T05:59:27;4.20;;;3.20;;
76729;SDS011;65653;53.106;18.046;2023-07-20T06:01:57;6.50;;;3.10;;
76729;SDS011;65653;53.106;18.046;2023-07-20T06:04:24;5.10;;;3.00;;
76729;SDS011;65653;53.106;18.046;2023-07-20T06:06:50;4.30;;;2.80;;
76729;SDS011;65653;53.106;18.046;2023-07-20T06:09:17;6.30;;;3.00;;
76729;SDS011;65653;53.106;18.046;2023-07-20T06:11:44;3.50;;;2.80;;
76729;SDS011;65653;53.106;18.046;2023-07-20T06:14:10;3.70;;;2.50;;
76729;SDS011;65653;53.106;18.046;2023-07-20T06:16:37;3.20;;;2.60;;
76729;SDS011;65653;53.106;18.046;2023-07-20T06:19:03;4.30;;;2.10;;
76729;SDS011;65653;53.106;18.046;2023-07-20T06:21:30;3.20;;;2.00;;
76729;SDS011;65653;53.106;18.046;2023-07-20T06:23:56;6.50;;;2.50;;
76729;SDS011;65653;53.106;18.046;2023-07-20T06:26:23;4.90;;;2.40;;
76729;SDS011;65653;53.106;18.046;2023-07-20T06:28:49;5.90;;;2.20;;
76729;SDS011;65653;53.106;18.046;2023-07-20T06:31:16;4.00;;;2.50;;
76729;SDS011;65653;53.106;18.046;2023-07-20T06:33:44;5.60;;;2.30;;
76729;SDS011;65653;53.106;18.046;2023-07-20T06:36:10;3.40;;;2.40;;
76729;SDS011;65653;53.106;18.046;2023-07-20T06:38:37;3.70;;;2.30;;
76729;SDS011;65653;53.106;18.046;2023-07-20T06:41:03;4.30;;;2.60;;
76729;SDS011;65653;53.106;18.046;2023-07-20T06:43:30;4.60;;;2.20;;
76729;SDS011;65653;53.106;18.046;2023-07-20T06:45:57;5.00;;;2.60;;
76729;SDS011;65653;53.106;18.046;2023-07-20T06:48:23;2.50;;;1.50;;
76729;SDS011;65653;53.106;18.046;2023-07-20T06:50:50;4.00;;;2.30;;
76729;SDS011;65653;53.106;18.046;2023-07-20T06:53:16;3.50;;;2.50;;
76729;SDS011;65653;53.106;18.046;2023-07-20T06:55:44;3.80;;;2.30;;
76729;SDS011;65653;53.106;18.046;2023-07-20T06:58:11;2.10;;;1.20;;
76729;SDS011;65653;53.106;18.046;2023-07-20T07:00:38;2.80;;;1.20;;
76729;SDS011;65653;53.106;18.046;2023-07-20T07:03:04;5.10;;;1.50;;
76729;SDS011;65653;53.106;18.046;2023-07-20T07:05:31;3.70;;;1.40;;
76729;SDS011;65653;53.106;18.046;2023-07-20T07:07:57;2.80;;;1.20;;
76729;SDS011;65653;53.106;18.046;2023-07-20T07:10:23;1.80;;;1.20;;
76729;SDS011;65653;53.106;18.046;2023-07-20T07:12:50;1.90;;;1.10;;
76729;SDS011;65653;53.106;18.046;2023-07-20T07:15:17;2.70;;;1.00;;
76729;SDS011;65653;53.106;18.046;2023-07-20T07:17:44;1.90;;;0.90;;
76729;SDS011;65653;53.106;18.046;2023-07-20T07:20:11;1.90;;;1.20;;
76729;SDS011;65653;53.106;18.046;2023-07-20T07:22:37;3.20;;;1.20;;
76729;SDS011;65653;53.106;18.046;2023-07-20T07:25:04;2.40;;;1.00;;
76729;SDS011;65653;53.106;18.046;2023-07-20T07:27:31;5.80;;;1.30;;
76729;SDS011;65653;53.106;18.046;2023-07-20T07:29:58;3.30;;;1.00;;
76729;SDS011;65653;53.106;18.046;2023-07-20T07:32:24;3.90;;;1.40;;
76729;SDS011;65653;53.106;18.046;2023-07-20T07:34:51;2.10;;;0.90;;
76729;SDS011;65653;53.106;18.046;2023-07-20T07:37:17;2.10;;;1.00;;
76729;SDS011;65653;53.106;18.046;2023-07-20T07:39:46;1.60;;;1.20;;
76729;SDS011;65653;53.106;18.046;2023-07-20T07:42:12;2.20;;;0.80;;
76729;SDS011;65653;53.106;18.046;2023-07-20T07:44:39;1.50;;;0.90;;
76729;SDS011;65653;53.106;18.046;2023-07-20T07:47:05;2.10;;;0.80;;
76729;SDS011;65653;53.106;18.046;2023-07-20T07:49:32;1.60;;;1.10;;
76729;SDS011;65653;53.106;18.046;2023-07-20T07:51:59;2.20;;;1.40;;
76729;SDS011;65653;53.106;18.046;2023-07-20T07:54:28;1.90;;;0.90;;
76729;SDS011;65653;53.106;18.046;2023-07-20T07:56:56;1.90;;;1.00;;
76729;SDS011;65653;53.106;18.046;2023-07-20T07:59:22;1.40;;;1.20;;
76729;SDS011;65653;53.106;18.046;2023-07-20T08:01:49;1.40;;;1.20;;
76729;SDS011;65653;53.106;18.046;2023-07-20T08:04:15;1.80;;;0.90;;
76729;SDS011;65653;53.106;18.046;2023-07-20T08:06:42;1.20;;;1.10;;
76729;SDS011;65653;53.106;18.046;2023-07-20T08:09:08;3.60;;;1.10;;
76729;SDS011;65653;53.106;18.046;2023-07-20T08:11:35;1.90;;;1.30;;
76729;SDS011;65653;53.106;18.046;2023-07-20T08:14:02;2.70;;;1.10;;
76729;SDS011;65653;53.106;18.046;2023-07-20T08:16:28;1.00;;;0.80;;
76729;SDS011;65653;53.106;18.046;2023-07-20T08:18:55;2.00;;;0.70;;
76729;SDS011;65653;53.106;18.046;2023-07-20T08:21:22;3.70;;;1.00;;
76729;SDS011;65653;53.106;18.046;2023-07-20T08:23:48;1.00;;;0.70;;
76729;SDS011;65653;53.106;18.046;2023-07-20T08:26:14;1.10;;;0.80;;
76729;SDS011;65653;53.106;18.046;2023-07-20T08:28:42;2.00;;;1.20;;
76729;SDS011;65653;53.106;18.046;2023-07-20T08:31:10;1.70;;;1.00;;
76729;SDS011;65653;53.106;18.046;2023-07-20T08:33:36;2.00;;;1.20;;
76729;SDS011;65653;53.106;18.046;2023-07-20T08:36:03;1.50;;;0.80;;
76729;SDS011;65653;53.106;18.046;2023-07-20T08:38:30;1.70;;;0.90;;
76729;SDS011;65653;53.106;18.046;2023-07-20T08:40:56;2.20;;;1.00;;
76729;SDS011;65653;53.106;18.046;2023-07-20T08:43:26;3.00;;;0.90;;
76729;SDS011;65653;53.106;18.046;2023-07-20T08:45:54;2.10;;;0.70;;
76729;SDS011;65653;53.106;18.046;2023-07-20T08:48:24;1.40;;;0.70;;
76729;SDS011;65653;53.106;18.046;2023-07-20T08:50:52;1.70;;;0.70;;
76729;SDS011;65653;53.106;18.046;2023-07-20T08:53:22;2.20;;;0.80;;
76729;SDS011;65653;53.106;18.046;2023-07-20T08:55:50;2.70;;;0.70;;
76729;SDS011;65653;53.106;18.046;2023-07-20T08:58:20;1.00;;;0.70;;
76729;SDS011;65653;53.106;18.046;2023-07-20T09:00:49;1.50;;;0.70;;
76729;SDS011;65653;53.106;18.046;2023-07-20T09:03:17;2.70;;;0.60;;
76729;SDS011;65653;53.106;18.046;2023-07-20T09:05:43;0.60;;;0.60;;
76729;SDS011;65653;53.106;18.046;2023-07-20T09:08:10;1.10;;;0.40;;
76729;SDS011;65653;53.106;18.046;2023-07-20T09:10:37;3.40;;;0.70;;
76729;SDS011;65653;53.106;18.046;2023-07-20T09:13:03;0.90;;;0.90;;
76729;SDS011;65653;53.106;18.046;2023-07-20T09:15:30;1.90;;;1.30;;
76729;SDS011;65653;53.106;18.046;2023-07-20T09:17:58;0.60;;;0.60;;
76729;SDS011;65653;53.106;18.046;2023-07-20T09:20:30;1.40;;;0.80;;
76729;SDS011;65653;53.106;18.046;2023-07-20T09:22:58;1.60;;;0.40;;
76729;SDS011;65653;53.106;18.046;2023-07-20T09:25:25;0.70;;;0.60;;
76729;SDS011;65653;53.106;18.046;2023-07-20T09:27:53;1.90;;;0.70;;
76729;SDS011;65653;53.106;18.046;2023-07-20T09:30:21;2.00;;;0.60;;
76729;SDS011;65653;53.106;18.046;2023-07-20T09:32:51;3.00;;;2.20;;
76729;SDS011;65653;53.106;18.046;2023-07-20T09:35:18;1.70;;;1.40;;
76729;SDS011;65653;53.106;18.046;2023-07-20T09:37:49;3.40;;;0.80;;
76729;SDS011;65653;53.106;18.046;2023-07-20T09:40:21;0.60;;;0.50;;
76729;SDS011;65653;53.106;18.046;2023-07-20T09:42:47;1.70;;;0.70;;
76729;SDS011;65653;53.106;18.046;2023-07-20T09:45:14;3.10;;;1.30;;
76729;SDS011;65653;53.106;18.046;2023-07-20T09:47:41;2.70;;;0.90;;
76729;SDS011;65653;53.106;18.046;2023-07-20T09:50:07;0.90;;;0.40;;
76729;SDS011;65653;53.106;18.046;2023-07-20T09:52:38;1.30;;;0.50;;
76729;SDS011;65653;53.106;18.046;2023-07-20T09:55:10;0.50;;;0.50;;
76729;SDS011;65653;53.106;18.046;2023-07-20T09:57:39;2.50;;;1.30;;
76729;SDS011;65653;53.106;18.046;2023-07-20T10:00:07;0.50;;;0.40;;
76729;SDS011;65653;53.106;18.046;2023-07-20T10:02:43;1.70;;;0.50;;
76729;SDS011;65653;53.106;18.046;2023-07-20T10:05:11;1.90;;;1.10;;
76729;SDS011;65653;53.106;18.046;2023-07-20T10:10:10;1.50;;;0.40;;
76729;SDS011;65653;53.106;18.046;2023-07-20T10:12:37;1.80;;;0.40;;
76729;SDS011;65653;53.106;18.046;2023-07-20T10:17:40;0.70;;;0.40;;
76729;SDS011;65653;53.106;18.046;2023-07-20T10:20:19;0.60;;;0.50;;
76729;SDS011;65653;53.106;18.046;2023-07-20T10:22:49;1.70;;;0.50;;
76729;SDS011;65653;53.106;18.046;2023-07-20T10:25:23;1.20;;;0.40;;
76729;SDS011;65653;53.106;18.046;2023-07-20T10:27:50;2.60;;;1.70;;
76729;SDS011;65653;53.106;18.046;2023-07-20T10:30:17;1.10;;;0.40;;
76729;SDS011;65653;53.106;18.046;2023-07-20T10:32:45;1.50;;;0.90;;
76729;SDS011;65653;53.106;18.046;2023-07-20T10:35:16;0.90;;;0.50;;
76729;SDS011;65653;53.106;18.046;2023-07-20T10:37:51;0.50;;;0.30;;
76729;SDS011;65653;53.106;18.046;2023-07-20T10:40:23;0.90;;;0.40;;
76729;SDS011;65653;53.106;18.046;2023-07-20T10:42:59;0.20;;;0.20;;
76729;SDS011;65653;53.106;18.046;2023-07-20T10:45:34;0.30;;;0.30;;
76729;SDS011;65653;53.106;18.046;2023-07-20T10:48:23;0.90;;;0.30;;
76729;SDS011;65653;53.106;18.046;2023-07-20T10:51:10;1.90;;;0.50;;
76729;SDS011;65653;53.106;18.046;2023-07-20T10:53:40;0.40;;;0.40;;
76729;SDS011;65653;53.106;18.046;2023-07-20T10:58:40;1.70;;;0.50;;
76729;SDS011;65653;53.106;18.046;2023-07-20T11:01:08;2.10;;;0.50;;
76729;SDS011;65653;53.106;18.046;2023-07-20T11:03:39;1.40;;;0.60;;
76729;SDS011;65653;53.106;18.046;2023-07-20T11:06:29;0.40;;;0.40;;
76729;SDS011;65653;53.106;18.046;2023-07-20T11:09:08;0.50;;;0.50;;
76729;SDS011;65653;53.106;18.046;2023-07-20T11:11:38;1.80;;;0.50;;
76729;SDS011;65653;53.106;18.046;2023-07-20T11:14:09;0.50;;;0.40;;
76729;SDS011;65653;53.106;18.046;2023-07-20T11:16:38;0.70;;;0.40;;
76729;SDS011;65653;53.106;18.046;2023-07-20T11:19:14;3.80;;;0.90;;
76729;SDS011;65653;53.106;18.046;2023-07-20T11:21:45;1.10;;;0.50;;
76729;SDS011;65653;53.106;18.046;2023-07-20T11:24:13;0.40;;;0.30;;
76729;SDS011;65653;53.106;18.046;2023-07-20T11:26:40;0.60;;;0.40;;
76729;SDS011;65653;53.106;18.046;2023-07-20T11:29:08;1.10;;;0.30;;
76729;SDS011;65653;53.106;18.046;2023-07-20T11:31:35;1.60;;;0.50;;
76729;SDS011;65653;53.106;18.046;2023-07-20T11:34:10;0.40;;;0.40;;
76729;SDS011;65653;53.106;18.046;2023-07-20T11:36:41;1.20;;;0.40;;
76729;SDS011;65653;53.106;18.046;2023-07-20T11:39:09;3.20;;;0.70;;
76729;SDS011;65653;53.106;18.046;2023-07-20T11:41:37;0.50;;;0.40;;
76729;SDS011;65653;53.106;18.046;2023-07-20T11:44:04;1.10;;;0.40;;
76729;SDS011;65653;53.106;18.046;2023-07-20T11:46:34;1.30;;;0.60;;
76729;SDS011;65653;53.106;18.046;2023-07-20T11:49:01;1.30;;;0.30;;
76729;SDS011;65653;53.106;18.046;2023-07-20T11:51:28;2.90;;;0.60;;
76729;SDS011;65653;53.106;18.046;2023-07-20T11:53:56;1.50;;;0.40;;
76729;SDS011;65653;53.106;18.046;2023-07-20T11:56:24;1.80;;;0.50;;
76729;SDS011;65653;53.106;18.046;2023-07-20T11:58:55;3.00;;;0.40;;
76729;SDS011;65653;53.106;18.046;2023-07-20T12:01:25;3.30;;;0.70;;
76729;SDS011;65653;53.106;18.046;2023-07-20T12:03:56;1.30;;;0.70;;
76729;SDS011;65653;53.106;18.046;2023-07-20T12:06:24;3.30;;;0.90;;
76729;SDS011;65653;53.106;18.046;2023-07-20T12:08:54;1.80;;;0.70;;
76729;SDS011;65653;53.106;18.046;2023-07-20T12:11:32;1.00;;;0.40;;
76729;SDS011;65653;53.106;18.046;2023-07-20T12:14:00;3.60;;;0.50;;
76729;SDS011;65653;53.106;18.046;2023-07-20T12:16:28;2.50;;;0.70;;
76729;SDS011;65653;53.106;18.046;2023-07-20T12:19:02;1.50;;;0.80;;
76729;SDS011;65653;53.106;18.046;2023-07-20T12:21:30;2.10;;;0.60;;
76729;SDS011;65653;53.106;18.046;2023-07-20T12:23:58;1.00;;;0.50;;
76729;SDS011;65653;53.106;18.046;2023-07-20T12:26:25;2.50;;;0.60;;
76729;SDS011;65653;53.106;18.046;2023-07-20T12:28:53;1.90;;;0.60;;
76729;SDS011;65653;53.106;18.046;2023-07-20T12:31:20;0.80;;;0.40;;
76729;SDS011;65653;53.106;18.046;2023-07-20T12:33:49;3.40;;;0.90;;
76729;SDS011;65653;53.106;18.046;2023-07-20T12:36:16;5.00;;;3.70;;
76729;SDS011;65653;53.106;18.046;2023-07-20T12:38:44;0.80;;;0.80;;
76729;SDS011;65653;53.106;18.046;2023-07-20T12:41:11;3.00;;;1.50;;
76729;SDS011;65653;53.106;18.046;2023-07-20T12:43:43;3.00;;;2.00;;
76729;SDS011;65653;53.106;18.046;2023-07-20T12:46:12;2.20;;;1.20;;
76729;SDS011;65653;53.106;18.046;2023-07-20T12:48:40;5.30;;;4.10;;
76729;SDS011;65653;53.106;18.046;2023-07-20T12:51:09;3.00;;;1.20;;
76729;SDS011;65653;53.106;18.046;2023-07-20T12:53:36;1.20;;;0.70;;
76729;SDS011;65653;53.106;18.046;2023-07-20T12:56:03;4.10;;;1.20;;
76729;SDS011;65653;53.106;18.046;2023-07-20T12:58:29;1.50;;;1.00;;
76729;SDS011;65653;53.106;18.046;2023-07-20T13:00:56;2.80;;;0.80;;
76729;SDS011;65653;53.106;18.046;2023-07-20T13:03:23;2.10;;;0.80;;
76729;SDS011;65653;53.106;18.046;2023-07-20T13:05:49;1.90;;;0.70;;
76729;SDS011;65653;53.106;18.046;2023-07-20T13:08:16;1.60;;;0.50;;
76729;SDS011;65653;53.106;18.046;2023-07-20T13:10:44;1.00;;;0.50;;
76729;SDS011;65653;53.106;18.046;2023-07-20T13:13:10;1.00;;;0.40;;
76729;SDS011;65653;53.106;18.046;2023-07-20T13:15:43;0.40;;;0.40;;
76729;SDS011;65653;53.106;18.046;2023-07-20T13:18:12;1.10;;;0.40;;
76729;SDS011;65653;53.106;18.046;2023-07-20T13:20:39;2.90;;;0.40;;
76729;SDS011;65653;53.106;18.046;2023-07-20T13:23:06;0.80;;;0.40;;
76729;SDS011;65653;53.106;18.046;2023-07-20T13:25:33;0.40;;;0.40;;
76729;SDS011;65653;53.106;18.046;2023-07-20T13:28:00;0.40;;;0.30;;
76729;SDS011;65653;53.106;18.046;2023-07-20T13:30:26;0.80;;;0.40;;
76729;SDS011;65653;53.106;18.046;2023-07-20T13:32:53;2.40;;;0.20;;
76729;SDS011;65653;53.106;18.046;2023-07-20T13:35:20;0.20;;;0.20;;
76729;SDS011;65653;53.106;18.046;2023-07-20T13:37:46;0.60;;;0.30;;
76729;SDS011;65653;53.106;18.046;2023-07-20T13:40:14;0.90;;;0.30;;
76729;SDS011;65653;53.106;18.046;2023-07-20T13:42:43;1.20;;;0.40;;
76729;SDS011;65653;53.106;18.046;2023-07-20T13:45:09;0.50;;;0.40;;
76729;SDS011;65653;53.106;18.046;2023-07-20T13:47:36;2.20;;;1.50;;
76729;SDS011;65653;53.106;18.046;2023-07-20T13:50:03;0.30;;;0.30;;
76729;SDS011;65653;53.106;18.046;2023-07-20T13:52:30;0.40;;;0.30;;
76729;SDS011;65653;53.106;18.046;2023-07-20T13:54:57;0.50;;;0.40;;
76729;SDS011;65653;53.106;18.046;2023-07-20T13:57:23;0.20;;;0.20;;
76729;SDS011;65653;53.106;18.046;2023-07-20T13:59:50;0.70;;;0.40;;
76729;SDS011;65653;53.106;18.046;2023-07-20T14:02:17;0.30;;;0.30;;
76729;SDS011;65653;53.106;18.046;2023-07-20T14:04:44;1.50;;;0.40;;
76729;SDS011;65653;53.106;18.046;2023-07-20T14:07:11;0.40;;;0.30;;
76729;SDS011;65653;53.106;18.046;2023-07-20T14:09:37;0.30;;;0.30;;
76729;SDS011;65653;53.106;18.046;2023-07-20T14:12:04;0.30;;;0.30;;
76729;SDS011;65653;53.106;18.046;2023-07-20T14:14:31;0.70;;;0.20;;
76729;SDS011;65653;53.106;18.046;2023-07-20T14:16:57;0.70;;;0.30;;
76729;SDS011;65653;53.106;18.046;2023-07-20T14:19:24;0.30;;;0.30;;
76729;SDS011;65653;53.106;18.046;2023-07-20T14:21:50;0.70;;;0.20;;
76729;SDS011;65653;53.106;18.046;2023-07-20T14:24:16;0.30;;;0.30;;
76729;SDS011;65653;53.106;18.046;2023-07-20T14:26:43;0.90;;;0.40;;
76729;SDS011;65653;53.106;18.046;2023-07-20T14:29:11;0.60;;;0.30;;
76729;SDS011;65653;53.106;18.046;2023-07-20T14:31:38;1.10;;;0.40;;
76729;SDS011;65653;53.106;18.046;2023-07-20T14:34:04;1.60;;;0.40;;
76729;SDS011;65653;53.106;18.046;2023-07-20T14:36:31;0.30;;;0.30;;
76729;SDS011;65653;53.106;18.046;2023-07-20T14:38:58;0.30;;;0.30;;
76729;SDS011;65653;53.106;18.046;2023-07-20T14:41:25;1.20;;;0.40;;
76729;SDS011;65653;53.106;18.046;2023-07-20T14:43:52;0.40;;;0.20;;
76729;SDS011;65653;53.106;18.046;2023-07-20T14:46:19;0.20;;;0.20;;
76729;SDS011;65653;53.106;18.046;2023-07-20T14:48:45;1.20;;;0.20;;
76729;SDS011;65653;53.106;18.046;2023-07-20T14:51:13;1.40;;;0.30;;
76729;SDS011;65653;53.106;18.046;2023-07-20T14:53:39;0.60;;;0.20;;